sensor_id;sensor_type;location;lat;lon;timestamp;temperature;humidity
75517;DHT22;64097;52.548;13.406;2024-02-26T06:02:13;10.60;57.20
75517;DHT22;64097;52.548;13.406;2024-02-26T06:04:38;10.60;57.20
75517;DHT22;64097;52.548;13.406;2024-02-26T06:07:04;10.60;57.30
75517;DHT22;64097;52.548;13.406;2024-02-26T06:09:30;10.60;57.30
75517;DHT22;64097;52.548;13.406;2024-02-26T06:11:56;10.60;57.30
75517;DHT22;64097;52.548;13.406;2024-02-26T06:14:22;10.60;57.30
75517;DHT22;64097;52.548;13.406;2024-02-26T06:16:48;10.60;57.40
75517;DHT22;64097;52.548;13.406;2024-02-26T06:19:15;10.60;57.30
75517;DHT22;64097;52.548;13.406;2024-02-26T06:21:40;10.60;57.30
75517;DHT22;64097;52.548;13.406;2024-02-26T06:24:06;10.60;57.30
75517;DHT22;64097;52.548;13.406;2024-02-26T06:26:31;10.60;57.40
75517;DHT22;64097;52.548;13.406;2024-02-26T06:28:59;10.60;57.30
75517;DHT22;64097;52.548;13.406;2024-02-26T06:31:24;10.60;57.30
75517;DHT22;64097;52.548;13.406;2024-02-26T06:33:53;10.60;57.30
75517;DHT22;64097;52.548;13.406;2024-02-26T06:36:19;10.60;57.40
75517;DHT22;64097;52.548;13.406;2024-02-26T06:38:45;10.60;57.40
75517;DHT22;64097;52.548;13.406;2024-02-26T06:41:10;10.70;57.40
75517;DHT22;64097;52.548;13.406;2024-02-26T06:43:37;10.60;57.40
75517;DHT22;64097;52.548;13.406;2024-02-26T06:46:02;10.70;57.40
75517;DHT22;64097;52.548;13.406;2024-02-26T06:48:28;10.70;57.50
75517;DHT22;64097;52.548;13.406;2024-02-26T06:50:54;10.70;57.50
75517;DHT22;64097;52.548;13.406;2024-02-26T06:53:19;10.70;57.50
75517;DHT22;64097;52.548;13.406;2024-02-26T06:55:45;10.70;57.50
75517;DHT22;64097;52.548;13.406;2024-02-26T06:58:11;10.80;57.50
75517;DHT22;64097;52.548;13.406;2024-02-26T07:00:37;10.80;57.50
75517;DHT22;64097;52.548;13.406;2024-02-26T07:03:03;10.80;57.50
75517;DHT22;64097;52.548;13.406;2024-02-26T07:05:29;10.90;57.40
75517;DHT22;64097;52.548;13.406;2024-02-26T07:07:55;10.90;57.50
75517;DHT22;64097;52.548;13.406;2024-02-26T07:10:20;10.90;57.40
75517;DHT22;64097;52.548;13.406;2024-02-26T07:12:46;10.90;57.30
75517;DHT22;64097;52.548;13.406;2024-02-26T07:15:12;10.90;57.30
75517;DHT22;64097;52.548;13.406;2024-02-26T07:17:38;10.90;57.30
75517;DHT22;64097;52.548;13.406;2024-02-26T07:20:08;10.90;57.30
75517;DHT22;64097;52.548;13.406;2024-02-26T07:22:34;11.00;57.30
75517;DHT22;64097;52.548;13.406;2024-02-26T07:24:59;11.00;57.30
75517;DHT22;64097;52.548;13.406;2024-02-26T07:27:25;11.00;57.40
75517;DHT22;64097;52.548;13.406;2024-02-26T07:29:51;11.00;57.50
75517;DHT22;64097;52.548;13.406;2024-02-26T07:32:16;11.00;57.50
75517;DHT22;64097;52.548;13.406;2024-02-26T07:34:42;11.00;57.50
75517;DHT22;64097;52.548;13.406;2024-02-26T07:37:10;11.00;57.50
75517;DHT22;64097;52.548;13.406;2024-02-26T07:39:36;11.10;57.50
75517;DHT22;64097;52.548;13.406;2024-02-26T07:42:02;11.10;57.50
75517;DHT22;64097;52.548;13.406;2024-02-26T07:44:28;11.10;57.60
75517;DHT22;64097;52.548;13.406;2024-02-26T07:46:54;11.10;57.50
75517;DHT22;64097;52.548;13.406;2024-02-26T07:49:20;11.10;57.60
75517;DHT22;64097;52.548;13.406;2024-02-26T07:51:45;11.20;57.70
75517;DHT22;64097;52.548;13.406;2024-02-26T07:54:11;11.20;57.70
75517;DHT22;64097;52.548;13.406;2024-02-26T07:56:37;11.20;57.70
75517;DHT22;64097;52.548;13.406;2024-02-26T07:59:03;11.30;57.70
75517;DHT22;64097;52.548;13.406;2024-02-26T08:01:29;11.30;57.70
75517;DHT22;64097;52.548;13.406;2024-02-26T08:03:54;11.30;57.80
75517;DHT22;64097;52.548;13.406;2024-02-26T08:06:21;11.40;57.70
75517;DHT22;64097;52.548;13.406;2024-02-26T08:08:46;11.40;57.70
75517;DHT22;64097;52.548;13.406;2024-02-26T08:11:14;11.40;57.80
75517;DHT22;64097;52.548;13.406;2024-02-26T08:13:41;11.40;57.60
75517;DHT22;64097;52.548;13.406;2024-02-26T08:16:07;11.50;57.70
75517;DHT22;64097;52.548;13.406;2024-02-26T08:18:33;11.50;57.70
75517;DHT22;64097;52.548;13.406;2024-02-26T08:20:58;11.60;57.70
75517;DHT22;64097;52.548;13.406;2024-02-26T08:23:24;11.60;57.70
75517;DHT22;64097;52.548;13.406;2024-02-26T08:25:50;11.60;58.30
75517;DHT22;64097;52.548;13.406;2024-02-26T08:28:16;11.70;57.60
75517;DHT22;64097;52.548;13.406;2024-02-26T08:30:43;11.70;57.50
75517;DHT22;64097;52.548;13.406;2024-02-26T08:33:09;11.70;57.50
75517;DHT22;64097;52.548;13.406;2024-02-26T08:35:36;11.80;57.60
75517;DHT22;64097;52.548;13.406;2024-02-26T08:38:02;11.80;57.50
75517;DHT22;64097;52.548;13.406;2024-02-26T08:40:28;11.90;57.50
75517;DHT22;64097;52.548;13.406;2024-02-26T08:42:54;11.90;57.40
75517;DHT22;64097;52.548;13.406;2024-02-26T08:45:21;12.00;57.40
75517;DHT22;64097;52.548;13.406;2024-02-26T08:47:47;12.00;57.30
75517;DHT22;64097;52.548;13.406;2024-02-26T08:50:14;12.10;57.20
75517;DHT22;64097;52.548;13.406;2024-02-26T08:52:40;12.10;57.20
75517;DHT22;64097;52.548;13.406;2024-02-26T08:55:07;12.20;57.20
75517;DHT22;64097;52.548;13.406;2024-02-26T08:57:34;12.30;57.00
75517;DHT22;64097;52.548;13.406;2024-02-26T09:00:03;12.30;57.00
75517;DHT22;64097;52.548;13.406;2024-02-26T09:02:29;12.30;56.90
75517;DHT22;64097;52.548;13.406;2024-02-26T09:04:55;12.40;57.00
75517;DHT22;64097;52.548;13.406;2024-02-26T09:07:22;12.40;56.90
75517;DHT22;64097;52.548;13.406;2024-02-26T09:09:48;12.40;56.80
75517;DHT22;64097;52.548;13.406;2024-02-26T09:12:13;12.50;56.80
75517;DHT22;64097;52.548;13.406;2024-02-26T09:14:39;12.60;56.80
75517;DHT22;64097;52.548;13.406;2024-02-26T09:17:05;12.60;56.70
75517;DHT22;64097;52.548;13.406;2024-02-26T09:19:33;12.70;56.60
75517;DHT22;64097;52.548;13.406;2024-02-26T09:21:58;12.70;56.40
75517;DHT22;64097;52.548;13.406;2024-02-26T09:24:24;12.70;56.30
75517;DHT22;64097;52.548;13.406;2024-02-26T09:26:50;12.80;56.20
75517;DHT22;64097;52.548;13.406;2024-02-26T09:29:16;12.80;56.20
75517;DHT22;64097;52.548;13.406;2024-02-26T09:31:42;12.80;56.10
75517;DHT22;64097;52.548;13.406;2024-02-26T09:34:09;12.90;56.20
75517;DHT22;64097;52.548;13.406;2024-02-26T09:36:34;12.90;56.10
75517;DHT22;64097;52.548;13.406;2024-02-26T09:39:00;13.00;56.00
75517;DHT22;64097;52.548;13.406;2024-02-26T09:41:28;13.00;55.90
75517;DHT22;64097;52.548;13.406;2024-02-26T09:43:56;13.00;55.90
75517;DHT22;64097;52.548;13.406;2024-02-26T09:46:23;13.00;55.80
75517;DHT22;64097;52.548;13.406;2024-02-26T09:48:50;13.10;55.80
75517;DHT22;64097;52.548;13.406;2024-02-26T09:51:16;13.10;55.80
75517;DHT22;64097;52.548;13.406;2024-02-26T09:53:44;13.10;55.70
75517;DHT22;64097;52.548;13.406;2024-02-26T09:56:12;13.20;56.40
75517;DHT22;64097;52.548;13.406;2024-02-26T09:58:41;13.20;55.60
75517;DHT22;64097;52.548;13.406;2024-02-26T10:01:17;13.20;55.60
75517;DHT22;64097;52.548;13.406;2024-02-26T10:03:44;13.20;55.60
75517;DHT22;64097;52.548;13.406;2024-02-26T10:06:11;13.30;55.60
75517;DHT22;64097;52.548;13.406;2024-02-26T10:08:36;13.30;55.40
75517;DHT22;64097;52.548;13.406;2024-02-26T10:11:06;13.30;55.30
75517;DHT22;64097;52.548;13.406;2024-02-26T10:13:32;13.40;55.30
75517;DHT22;64097;52.548;13.406;2024-02-26T10:15:58;13.40;55.30
75517;DHT22;64097;52.548;13.406;2024-02-26T10:18:24;13.40;55.30
75517;DHT22;64097;52.548;13.406;2024-02-26T10:21:02;13.50;55.30
75517;DHT22;64097;52.548;13.406;2024-02-26T10:23:28;13.50;55.30
75517;DHT22;64097;52.548;13.406;2024-02-26T10:25:54;13.50;55.20
75517;DHT22;64097;52.548;13.406;2024-02-26T10:28:20;13.60;55.10
75517;DHT22;64097;52.548;13.406;2024-02-26T10:30:46;13.60;55.10
75517;DHT22;64097;52.548;13.406;2024-02-26T10:33:12;13.60;55.10
75517;DHT22;64097;52.548;13.406;2024-02-26T10:35:40;13.70;55.00
75517;DHT22;64097;52.548;13.406;2024-02-26T10:38:07;13.70;54.80
75517;DHT22;64097;52.548;13.406;2024-02-26T10:40:33;13.80;54.80
75517;DHT22;64097;52.548;13.406;2024-02-26T10:42:59;13.80;54.70
75517;DHT22;64097;52.548;13.406;2024-02-26T10:45:24;13.90;54.70
75517;DHT22;64097;52.548;13.406;2024-02-26T10:47:50;13.90;54.40
75517;DHT22;64097;52.548;13.406;2024-02-26T10:50:17;14.00;54.30
75517;DHT22;64097;52.548;13.406;2024-02-26T10:52:43;14.00;54.00
75517;DHT22;64097;52.548;13.406;2024-02-26T10:55:15;14.10;54.00
75517;DHT22;64097;52.548;13.406;2024-02-26T10:57:45;14.10;53.90
75517;DHT22;64097;52.548;13.406;2024-02-26T11:00:14;14.20;53.80
75517;DHT22;64097;52.548;13.406;2024-02-26T11:02:41;14.20;53.70
75517;DHT22;64097;52.548;13.406;2024-02-26T11:05:08;14.20;53.70
75517;DHT22;64097;52.548;13.406;2024-02-26T11:07:37;14.20;53.50
75517;DHT22;64097;52.548;13.406;2024-02-26T11:10:04;14.20;53.70
75517;DHT22;64097;52.548;13.406;2024-02-26T11:12:32;14.30;53.70
75517;DHT22;64097;52.548;13.406;2024-02-26T11:14:59;14.30;53.50
75517;DHT22;64097;52.548;13.406;2024-02-26T11:17:28;14.30;53.50
75517;DHT22;64097;52.548;13.406;2024-02-26T11:19:58;14.40;53.50
75517;DHT22;64097;52.548;13.406;2024-02-26T11:22:25;14.40;53.30
75517;DHT22;64097;52.548;13.406;2024-02-26T11:24:56;14.40;53.20
75517;DHT22;64097;52.548;13.406;2024-02-26T11:27:35;14.50;53.60
75517;DHT22;64097;52.548;13.406;2024-02-26T11:30:03;14.50;53.60
75517;DHT22;64097;52.548;13.406;2024-02-26T11:32:31;14.60;53.60
75517;DHT22;64097;52.548;13.406;2024-02-26T11:34:58;14.60;53.60
75517;DHT22;64097;52.548;13.406;2024-02-26T11:37:24;14.70;53.60
75517;DHT22;64097;52.548;13.406;2024-02-26T11:39:53;14.60;53.50
75517;DHT22;64097;52.548;13.406;2024-02-26T11:42:23;14.70;53.70
75517;DHT22;64097;52.548;13.406;2024-02-26T11:44:50;14.80;53.60
75517;DHT22;64097;52.548;13.406;2024-02-26T11:47:23;14.80;53.50
75517;DHT22;64097;52.548;13.406;2024-02-26T11:49:49;14.80;53.50
75517;DHT22;64097;52.548;13.406;2024-02-26T11:52:15;14.80;53.40
75517;DHT22;64097;52.548;13.406;2024-02-26T11:54:52;14.80;53.40
75517;DHT22;64097;52.548;13.406;2024-02-26T11:57:40;14.90;53.30
75517;DHT22;64097;52.548;13.406;2024-02-26T12:05:21;15.00;52.90
75517;DHT22;64097;52.548;13.406;2024-02-26T12:08:00;15.10;52.80
75517;DHT22;64097;52.548;13.406;2024-02-26T12:10:33;15.10;52.70
75517;DHT22;64097;52.548;13.406;2024-02-26T12:13:17;15.10;52.40
75517;DHT22;64097;52.548;13.406;2024-02-26T12:15:43;15.20;52.20
75517;DHT22;64097;52.548;13.406;2024-02-26T12:18:12;15.20;52.20
75517;DHT22;64097;52.548;13.406;2024-02-26T12:20:41;15.20;51.90
75517;DHT22;64097;52.548;13.406;2024-02-26T12:23:07;15.30;52.80
75517;DHT22;64097;52.548;13.406;2024-02-26T12:25:33;15.30;52.50
75517;DHT22;64097;52.548;13.406;2024-02-26T12:28:00;15.30;52.20
75517;DHT22;64097;52.548;13.406;2024-02-26T12:30:26;15.30;52.10
75517;DHT22;64097;52.548;13.406;2024-02-26T12:32:55;15.30;51.90
75517;DHT22;64097;52.548;13.406;2024-02-26T12:35:23;15.40;51.70
75517;DHT22;64097;52.548;13.406;2024-02-26T12:37:50;15.40;51.50
75517;DHT22;64097;52.548;13.406;2024-02-26T12:40:17;15.50;51.40
75517;DHT22;64097;52.548;13.406;2024-02-26T12:42:43;15.50;51.40
75517;DHT22;64097;52.548;13.406;2024-02-26T12:45:10;15.60;51.00
75517;DHT22;64097;52.548;13.406;2024-02-26T12:47:41;15.60;50.70
75517;DHT22;64097;52.548;13.406;2024-02-26T12:50:08;15.70;50.30
75517;DHT22;64097;52.548;13.406;2024-02-26T12:52:44;15.70;50.10
75517;DHT22;64097;52.548;13.406;2024-02-26T12:55:13;15.70;50.10
75517;DHT22;64097;52.548;13.406;2024-02-26T12:57:40;15.70;49.80
75517;DHT22;64097;52.548;13.406;2024-02-26T13:00:11;15.70;49.20
75517;DHT22;64097;52.548;13.406;2024-02-26T13:02:38;15.80;48.90
75517;DHT22;64097;52.548;13.406;2024-02-26T13:05:06;15.70;48.60
75517;DHT22;64097;52.548;13.406;2024-02-26T13:07:33;15.70;48.20
75517;DHT22;64097;52.548;13.406;2024-02-26T13:10:00;15.70;48.20
75517;DHT22;64097;52.548;13.406;2024-02-26T13:12:26;15.70;48.20
75517;DHT22;64097;52.548;13.406;2024-02-26T13:15:02;15.80;47.90
75517;DHT22;64097;52.548;13.406;2024-02-26T13:17:31;15.80;47.90
75517;DHT22;64097;52.548;13.406;2024-02-26T13:19:56;15.80;47.80
75517;DHT22;64097;52.548;13.406;2024-02-26T13:22:22;15.80;47.90
75517;DHT22;64097;52.548;13.406;2024-02-26T13:24:58;15.90;47.60
75517;DHT22;64097;52.548;13.406;2024-02-26T13:27:25;15.90;47.40
75517;DHT22;64097;52.548;13.406;2024-02-26T13:30:12;15.90;47.10
75517;DHT22;64097;52.548;13.406;2024-02-26T13:32:39;16.00;46.50
75517;DHT22;64097;52.548;13.406;2024-02-26T13:35:10;16.00;46.10
75517;DHT22;64097;52.548;13.406;2024-02-26T13:37:37;16.00;45.20
75517;DHT22;64097;52.548;13.406;2024-02-26T13:40:07;16.00;45.30
75517;DHT22;64097;52.548;13.406;2024-02-26T13:42:34;16.10;44.50
75517;DHT22;64097;52.548;13.406;2024-02-26T13:45:00;16.10;44.50
75517;DHT22;64097;52.548;13.406;2024-02-26T13:47:26;16.00;44.00
75517;DHT22;64097;52.548;13.406;2024-02-26T13:49:51;16.00;44.10
75517;DHT22;64097;52.548;13.406;2024-02-26T13:52:17;16.00;44.40
75517;DHT22;64097;52.548;13.406;2024-02-26T13:54:45;16.00;44.20
75517;DHT22;64097;52.548;13.406;2024-02-26T13:57:11;16.00;44.40
75517;DHT22;64097;52.548;13.406;2024-02-26T13:59:37;16.00;44.30
75517;DHT22;64097;52.548;13.406;2024-02-26T14:13:50;16.10;43.80
75517;DHT22;64097;52.548;13.406;2024-02-26T14:16:16;16.10;43.90
75517;DHT22;64097;52.548;13.406;2024-02-26T14:18:42;16.10;44.10
75517;DHT22;64097;52.548;13.406;2024-02-26T14:21:10;16.00;44.20
75517;DHT22;64097;52.548;13.406;2024-02-26T14:23:35;16.00;44.50
75517;DHT22;64097;52.548;13.406;2024-02-26T14:26:01;16.10;44.40
75517;DHT22;64097;52.548;13.406;2024-02-26T14:28:27;16.10;44.70
75517;DHT22;64097;52.548;13.406;2024-02-26T14:30:54;16.10;44.70
75517;DHT22;64097;52.548;13.406;2024-02-26T14:33:20;16.10;44.70
75517;DHT22;64097;52.548;13.406;2024-02-26T14:35:46;16.20;44.70
75517;DHT22;64097;52.548;13.406;2024-02-26T14:38:11;16.20;44.70
75517;DHT22;64097;52.548;13.406;2024-02-26T14:40:37;16.20;44.80
75517;DHT22;64097;52.548;13.406;2024-02-26T14:43:03;16.20;44.80
75517;DHT22;64097;52.548;13.406;2024-02-26T14:45:30;16.20;44.80
75517;DHT22;64097;52.548;13.406;2024-02-26T14:47:56;16.30;45.00
75517;DHT22;64097;52.548;13.406;2024-02-26T14:50:21;16.20;45.10
75517;DHT22;64097;52.548;13.406;2024-02-26T14:52:47;16.20;45.30
75517;DHT22;64097;52.548;13.406;2024-02-26T14:55:13;16.30;45.40
75517;DHT22;64097;52.548;13.406;2024-02-26T14:57:39;16.30;45.40
75517;DHT22;64097;52.548;13.406;2024-02-26T15:00:05;16.30;45.60
75517;DHT22;64097;52.548;13.406;2024-02-26T15:02:32;16.30;45.70
75517;DHT22;64097;52.548;13.406;2024-02-26T15:04:58;16.30;45.80
75517;DHT22;64097;52.548;13.406;2024-02-26T15:07:24;16.30;45.70
75517;DHT22;64097;52.548;13.406;2024-02-26T15:09:50;16.30;45.60
75517;DHT22;64097;52.548;13.406;2024-02-26T15:12:15;16.30;46.30
75517;DHT22;64097;52.548;13.406;2024-02-26T15:14:43;16.30;45.40
75517;DHT22;64097;52.548;13.406;2024-02-26T15:17:10;16.30;45.40
75517;DHT22;64097;52.548;13.406;2024-02-26T15:19:39;16.30;45.40
75517;DHT22;64097;52.548;13.406;2024-02-26T15:22:05;16.20;45.20
75517;DHT22;64097;52.548;13.406;2024-02-26T15:24:30;16.20;45.40
75517;DHT22;64097;52.548;13.406;2024-02-26T15:26:56;16.20;45.50
75517;DHT22;64097;52.548;13.406;2024-02-26T15:29:22;16.20;45.50
75517;DHT22;64097;52.548;13.406;2024-02-26T15:31:48;16.20;45.50
75517;DHT22;64097;52.548;13.406;2024-02-26T15:34:14;16.20;45.60
75517;DHT22;64097;52.548;13.406;2024-02-26T15:36:41;16.10;45.60
75517;DHT22;64097;52.548;13.406;2024-02-26T15:39:06;16.10;45.70
75517;DHT22;64097;52.548;13.406;2024-02-26T15:41:32;16.10;45.70
75517;DHT22;64097;52.548;13.406;2024-02-26T15:43:58;16.10;45.90
75517;DHT22;64097;52.548;13.406;2024-02-26T15:46:26;16.10;46.00
75517;DHT22;64097;52.548;13.406;2024-02-26T15:48:52;16.10;46.10
75517;DHT22;64097;52.548;13.406;2024-02-26T15:51:20;16.10;46.20
75517;DHT22;64097;52.548;13.406;2024-02-26T15:53:46;16.10;46.40
75517;DHT22;64097;52.548;13.406;2024-02-26T15:56:13;16.10;46.50
75517;DHT22;64097;52.548;13.406;2024-02-26T15:58:40;16.00;46.60
75517;DHT22;64097;52.548;13.406;2024-02-26T16:01:06;16.10;46.90
75517;DHT22;64097;52.548;13.406;2024-02-26T16:03:37;16.00;47.10
75517;DHT22;64097;52.548;13.406;2024-02-26T16:06:03;16.00;47.30
75517;DHT22;64097;52.548;13.406;2024-02-26T16:08:30;16.00;47.40
75517;DHT22;64097;52.548;13.406;2024-02-26T16:10:56;16.00;47.60
75517;DHT22;64097;52.548;13.406;2024-02-26T16:13:22;16.00;47.70
75517;DHT22;64097;52.548;13.406;2024-02-26T16:16:01;16.00;47.80
75517;DHT22;64097;52.548;13.406;2024-02-26T16:18:29;15.90;48.00
75517;DHT22;64097;52.548;13.406;2024-02-26T16:20:56;15.90;48.20
75517;DHT22;64097;52.548;13.406;2024-02-26T16:23:22;15.90;48.30
75517;DHT22;64097;52.548;13.406;2024-02-26T16:25:48;15.90;48.40
75517;DHT22;64097;52.548;13.406;2024-02-26T16:28:13;15.90;48.40
75517;DHT22;64097;52.548;13.406;2024-02-26T16:30:39;15.80;48.60
75517;DHT22;64097;52.548;13.406;2024-02-26T16:33:05;15.80;48.70
75517;DHT22;64097;52.548;13.406;2024-02-26T16:35:31;15.80;48.80
75517;DHT22;64097;52.548;13.406;2024-02-26T16:37:58;15.70;48.80
75517;DHT22;64097;52.548;13.406;2024-02-26T16:40:24;15.70;48.90
75517;DHT22;64097;52.548;13.406;2024-02-26T16:42:49;15.70;48.90
75517;DHT22;64097;52.548;13.406;2024-02-26T16:45:15;15.70;49.10
75517;DHT22;64097;52.548;13.406;2024-02-26T16:47:41;15.70;49.20
75517;DHT22;64097;52.548;13.406;2024-02-26T16:50:09;15.60;49.20
75517;DHT22;64097;52.548;13.406;2024-02-26T16:52:35;15.60;49.20
75517;DHT22;64097;52.548;13.406;2024-02-26T16:55:01;15.60;49.30
75517;DHT22;64097;52.548;13.406;2024-02-26T16:57:26;15.50;49.40
75517;DHT22;64097;52.548;13.406;2024-02-26T16:59:52;15.60;49.50
75517;DHT22;64097;52.548;13.406;2024-02-26T17:02:18;15.50;49.50
75517;DHT22;64097;52.548;13.406;2024-02-26T17:04:43;15.50;49.60
75517;DHT22;64097;52.548;13.406;2024-02-26T17:07:09;15.50;49.70
75517;DHT22;64097;52.548;13.406;2024-02-26T17:09:35;15.50;49.70
75517;DHT22;64097;52.548;13.406;2024-02-26T17:12:01;15.50;49.80
75517;DHT22;64097;52.548;13.406;2024-02-26T17:14:27;15.50;50.30
75517;DHT22;64097;52.548;13.406;2024-02-26T17:16:57;15.50;50.30
75517;DHT22;64097;52.548;13.406;2024-02-26T17:19:25;15.40;50.40
75517;DHT22;64097;52.548;13.406;2024-02-26T17:21:51;15.40;50.80
75517;DHT22;64097;52.548;13.406;2024-02-26T17:24:18;15.40;50.90
75517;DHT22;64097;52.548;13.406;2024-02-26T17:26:44;15.40;51.00
75517;DHT22;64097;52.548;13.406;2024-02-26T17:29:10;15.40;51.20
75517;DHT22;64097;52.548;13.406;2024-02-26T17:31:35;15.30;51.40
75517;DHT22;64097;52.548;13.406;2024-02-26T17:34:08;15.30;51.40
75517;DHT22;64097;52.548;13.406;2024-02-26T17:36:35;15.30;51.60
75517;DHT22;64097;52.548;13.406;2024-02-26T17:39:01;15.20;51.70
75517;DHT22;64097;52.548;13.406;2024-02-26T17:41:27;15.20;51.80
75517;DHT22;64097;52.548;13.406;2024-02-26T17:43:53;15.20;51.70
75517;DHT22;64097;52.548;13.406;2024-02-26T17:46:20;15.20;51.70
75517;DHT22;64097;52.548;13.406;2024-02-26T17:48:46;15.20;51.70
75517;DHT22;64097;52.548;13.406;2024-02-26T17:51:12;15.20;51.80
75517;DHT22;64097;52.548;13.406;2024-02-26T17:53:38;15.20;51.80
75517;DHT22;64097;52.548;13.406;2024-02-26T17:56:05;15.10;51.80
75517;DHT22;64097;52.548;13.406;2024-02-26T17:58:32;15.10;51.80
75517;DHT22;64097;52.548;13.406;2024-02-26T18:00:58;15.10;51.90
75517;DHT22;64097;52.548;13.406;2024-02-26T18:03:24;15.10;52.60
75517;DHT22;64097;52.548;13.406;2024-02-26T18:05:50;15.10;52.00
75517;DHT22;64097;52.548;13.406;2024-02-26T18:08:16;15.00;52.00
75517;DHT22;64097;52.548;13.406;2024-02-26T18:10:50;15.00;52.00
75517;DHT22;64097;52.548;13.406;2024-02-26T18:13:16;15.00;52.00
75517;DHT22;64097;52.548;13.406;2024-02-26T18:15:42;15.00;52.10
75517;DHT22;64097;52.548;13.406;2024-02-26T18:18:08;15.00;52.20
75517;DHT22;64097;52.548;13.406;2024-02-26T18:20:34;15.00;52.20
75517;DHT22;64097;52.548;13.406;2024-02-26T18:22:59;14.90;52.20
75517;DHT22;64097;52.548;13.406;2024-02-26T18:25:25;14.90;52.20
75517;DHT22;64097;52.548;13.406;2024-02-26T18:27:52;14.90;52.10
75517;DHT22;64097;52.548;13.406;2024-02-26T18:30:18;14.90;52.10
75517;DHT22;64097;52.548;13.406;2024-02-26T18:32:44;14.90;52.20
75517;DHT22;64097;52.548;13.406;2024-02-26T18:35:10;14.80;52.10
75517;DHT22;64097;52.548;13.406;2024-02-26T18:37:36;14.80;52.10
75517;DHT22;64097;52.548;13.406;2024-02-26T18:40:02;14.80;52.10
75517;DHT22;64097;52.548;13.406;2024-02-26T18:42:33;14.80;52.20
75517;DHT22;64097;52.548;13.406;2024-02-26T18:45:01;14.80;52.10
75517;DHT22;64097;52.548;13.406;2024-02-26T18:47:27;14.80;52.10
75517;DHT22;64097;52.548;13.406;2024-02-26T18:49:53;14.80;52.10
75517;DHT22;64097;52.548;13.406;2024-02-26T18:52:18;14.80;52.10
75517;DHT22;64097;52.548;13.406;2024-02-26T18:54:44;14.80;52.20
75517;DHT22;64097;52.548;13.406;2024-02-26T18:57:11;14.80;52.30
75517;DHT22;64097;52.548;13.406;2024-02-26T18:59:37;14.80;52.20
75517;DHT22;64097;52.548;13.406;2024-02-26T19:02:03;14.80;52.30
75517;DHT22;64097;52.548;13.406;2024-02-26T19:04:30;14.80;52.20
75517;DHT22;64097;52.548;13.406;2024-02-26T19:06:55;14.80;52.30
75517;DHT22;64097;52.548;13.406;2024-02-26T19:09:21;14.80;52.30
75517;DHT22;64097;52.548;13.406;2024-02-26T19:11:47;14.70;52.20
75517;DHT22;64097;52.548;13.406;2024-02-26T19:14:14;14.80;52.20
75517;DHT22;64097;52.548;13.406;2024-02-26T19:16:40;14.70;52.10
75517;DHT22;64097;52.548;13.406;2024-02-26T19:19:07;14.70;52.20
75517;DHT22;64097;52.548;13.406;2024-02-26T19:21:34;14.70;52.20
75517;DHT22;64097;52.548;13.406;2024-02-26T19:24:00;14.70;52.20
75517;DHT22;64097;52.548;13.406;2024-02-26T19:26:28;14.60;52.10
75517;DHT22;64097;52.548;13.406;2024-02-26T19:28:54;14.60;52.10
75517;DHT22;64097;52.548;13.406;2024-02-26T19:31:20;14.60;52.20
75517;DHT22;64097;52.548;13.406;2024-02-26T19:33:45;14.60;52.20
75517;DHT22;64097;52.548;13.406;2024-02-26T19:36:12;14.60;52.20
75517;DHT22;64097;52.548;13.406;2024-02-26T19:38:38;14.50;52.20
75517;DHT22;64097;52.548;13.406;2024-02-26T19:41:05;14.50;52.10
75517;DHT22;64097;52.548;13.406;2024-02-26T19:43:30;14.50;52.90
75517;DHT22;64097;52.548;13.406;2024-02-26T19:45:56;14.50;52.20
75517;DHT22;64097;52.548;13.406;2024-02-26T19:48:22;14.40;52.10
75517;DHT22;64097;52.548;13.406;2024-02-26T19:50:48;14.40;52.10
75517;DHT22;64097;52.548;13.406;2024-02-26T19:53:14;14.40;52.20
75517;DHT22;64097;52.548;13.406;2024-02-26T19:55:40;14.40;52.10
75517;DHT22;64097;52.548;13.406;2024-02-26T19:58:06;14.40;52.20
75517;DHT22;64097;52.548;13.406;2024-02-26T20:00:31;14.40;52.20
75517;DHT22;64097;52.548;13.406;2024-02-26T20:02:57;14.30;52.10
75517;DHT22;64097;52.548;13.406;2024-02-26T20:05:23;14.30;52.10
75517;DHT22;64097;52.548;13.406;2024-02-26T20:07:49;14.30;52.20
75517;DHT22;64097;52.548;13.406;2024-02-26T20:10:17;14.30;52.20
75517;DHT22;64097;52.548;13.406;2024-02-26T20:12:42;14.30;52.20
75517;DHT22;64097;52.548;13.406;2024-02-26T20:15:08;14.20;52.20
75517;DHT22;64097;52.548;13.406;2024-02-26T20:17:34;14.20;52.20
75517;DHT22;64097;52.548;13.406;2024-02-26T20:20:00;14.20;52.20
75517;DHT22;64097;52.548;13.406;2024-02-26T20:22:25;14.10;52.20
75517;DHT22;64097;52.548;13.406;2024-02-26T20:24:51;14.10;52.20
75517;DHT22;64097;52.548;13.406;2024-02-26T20:27:20;14.10;52.30
75517;DHT22;64097;52.548;13.406;2024-02-26T20:29:46;14.00;52.20
75517;DHT22;64097;52.548;13.406;2024-02-26T20:32:12;14.00;52.30
75517;DHT22;64097;52.548;13.406;2024-02-26T20:34:38;14.00;52.40
75517;DHT22;64097;52.548;13.406;2024-02-26T20:37:05;13.90;52.40
75517;DHT22;64097;52.548;13.406;2024-02-26T20:39:32;13.90;52.40
75517;DHT22;64097;52.548;13.406;2024-02-26T20:41:58;13.90;52.40
75517;DHT22;64097;52.548;13.406;2024-02-26T20:44:24;13.80;52.40
75517;DHT22;64097;52.548;13.406;2024-02-26T20:46:49;13.80;52.40
75517;DHT22;64097;52.548;13.406;2024-02-26T20:49:17;13.80;52.40
75517;DHT22;64097;52.548;13.406;2024-02-26T20:51:43;13.70;52.40
75517;DHT22;64097;52.548;13.406;2024-02-26T20:54:08;13.80;52.40
75517;DHT22;64097;52.548;13.406;2024-02-26T20:56:37;13.80;52.50
75517;DHT22;64097;52.548;13.406;2024-02-26T20:59:03;13.70;52.50
75517;DHT22;64097;52.548;13.406;2024-02-26T21:01:29;13.70;52.50
75517;DHT22;64097;52.548;13.406;2024-02-26T21:03:55;13.70;52.40
75517;DHT22;64097;52.548;13.406;2024-02-26T21:06:21;13.70;52.50
75517;DHT22;64097;52.548;13.406;2024-02-26T21:08:46;13.70;52.50
75517;DHT22;64097;52.548;13.406;2024-02-26T21:11:13;13.60;52.50
75517;DHT22;64097;52.548;13.406;2024-02-26T21:13:39;13.60;52.50
75517;DHT22;64097;52.548;13.406;2024-02-26T21:16:06;13.60;52.60
75517;DHT22;64097;52.548;13.406;2024-02-26T21:18:32;13.60;52.50
75517;DHT22;64097;52.548;13.406;2024-02-26T21:21:00;13.60;52.60
75517;DHT22;64097;52.548;13.406;2024-02-26T21:23:26;13.50;52.60
75517;DHT22;64097;52.548;13.406;2024-02-26T21:25:52;13.50;52.60
75517;DHT22;64097;52.548;13.406;2024-02-26T21:28:17;13.50;52.70
75517;DHT22;64097;52.548;13.406;2024-02-26T21:30:43;13.50;52.80